Church View, Virginia
Current Conditions -  °F | °C
As of 6:55 AM on Thursday 23 Oct 2014 (Local Time) from KFYJ Reporting Station
Overcast Overcast  
Wind Chill: 55°   Ceiling: 4200
Heat Index: 55°   Visibility: 10mi
Dew Point: 42°   Wind: 6mph
Humidity: 64%   Direction: 300°WNW
Pressure: 29.92"   Gusts: 17mph
Location:  37.68°N, 76.68°W
Report Text: KFYJ 231055Z AUTO 30005G15KT 10SM BKN042 OVC065 13/06 A2992 RMK AO2 T01250058
Loading
Personal Weather Stations






























Interactive Weather Map
Tropical Storm Tracking
New forecast layout! Learn more

10-Day Weather Forecast

Advertisements
Track Severe Weather on mobile